createdAt,value
2017-06-22T00:02:27.999Z,0
2017-06-22T17:08:44.819Z,50
2017-06-22T17:08:55.471Z,50
2017-06-22T17:09:55.346Z,50
2017-06-22T17:10:55.608Z,50
2017-06-22T17:11:55.589Z,45
2017-06-22T17:12:54.961Z,45
2017-06-22T17:13:55.260Z,40
2017-06-22T17:14:54.951Z,40
2017-06-22T17:15:55.264Z,35
2017-06-22T17:16:55.266Z,35
2017-06-22T17:17:54.958Z,35
2017-06-22T17:18:55.269Z,35
2017-06-22T17:19:55.269Z,30
2017-06-22T17:20:55.268Z,30
2017-06-22T17:21:55.272Z,30
2017-06-22T17:22:55.304Z,30
2017-06-22T17:23:54.969Z,30
2017-06-22T17:24:55.277Z,30
2017-06-22T17:25:54.976Z,30
2017-06-22T17:26:55.282Z,30
2017-06-22T17:27:55.284Z,30
2017-06-22T17:28:54.977Z,30
2017-06-22T17:29:55.291Z,30
2017-06-22T17:30:55.292Z,30
2017-06-22T17:31:54.986Z,30
2017-06-22T17:32:54.987Z,30
2017-06-22T17:33:55.292Z,30
2017-06-22T17:34:54.992Z,30
2017-06-22T17:35:55.295Z,30
2017-06-22T17:36:54.992Z,30
2017-06-22T17:37:55.019Z,30
2017-06-22T17:38:55.067Z,30
2017-06-22T17:39:55.003Z,30
2017-06-22T17:40:55.312Z,30
2017-06-22T17:41:55.573Z,30
2017-06-22T17:42:55.325Z,30
2017-06-22T17:43:55.007Z,30
2017-06-22T17:44:55.225Z,25
2017-06-22T17:45:55.319Z,25
2017-06-22T17:46:55.424Z,25
2017-06-22T17:47:55.687Z,25
2017-06-22T17:48:55.202Z,25
2017-06-22T17:49:55.322Z,25
2017-06-22T17:50:55.535Z,25
2017-06-22T17:51:55.326Z,20
2017-06-22T17:52:54.715Z,20
2017-06-22T17:53:55.372Z,20
2017-06-22T17:54:55.333Z,20
2017-06-22T17:55:55.335Z,20
2017-06-22T17:56:54.722Z,20
2017-06-22T17:57:55.027Z,15
2017-06-22T17:58:55.339Z,15
2017-06-22T17:59:55.345Z,15
2017-06-22T18:00:54.434Z,15
2017-06-22T18:01:55.038Z,15
2017-06-22T18:02:55.348Z,15
2017-06-22T18:03:54.741Z,15
2017-06-22T18:04:55.508Z,10
2017-06-22T18:05:55.353Z,10
2017-06-22T18:06:55.051Z,10
2017-06-22T18:07:54.742Z,10
2017-06-22T18:08:54.744Z,10
2017-06-22T18:09:55.687Z,10
2017-06-22T18:10:55.363Z,10
2017-06-22T18:11:55.074Z,10
2017-06-22T18:12:55.071Z,10
2017-06-22T18:13:54.755Z,10
2017-06-22T18:14:55.063Z,10
2017-06-22T18:15:55.060Z,5
2017-06-22T18:16:55.066Z,5
2017-06-22T18:17:55.071Z,5
2017-06-22T18:18:55.371Z,5
2017-06-22T18:19:55.069Z,5
2017-06-22T18:20:55.078Z,5
2017-06-22T18:21:55.121Z,5
2017-06-22T18:22:55.381Z,5
2017-06-22T18:23:55.415Z,5
2017-06-22T18:24:55.080Z,5
2017-06-22T18:25:55.088Z,5
2017-06-22T18:26:55.417Z,5
2017-06-22T18:27:55.081Z,5
2017-06-22T18:28:55.083Z,5
2017-06-22T18:29:54.785Z,5
2017-06-22T18:30:55.086Z,5
2017-06-22T18:31:55.487Z,5
2017-06-22T18:32:55.397Z,5
2017-06-22T18:33:55.401Z,5
2017-06-22T18:34:54.789Z,5
2017-06-22T18:35:55.116Z,5
2017-06-22T18:36:54.793Z,5
2017-06-22T18:37:55.098Z,5
2017-06-22T18:38:55.416Z,5
2017-06-22T18:39:55.106Z,5
